Pride Of Burgundy — MQSQ9 — position and weather

sailwx.info

Track history (hours):
 
Tides and Currents Weather Stations Pressure Air Temp Water Temp Dewpoint Dewpoint Depression Visibility Wind Speed Wind Dir Waves Ship Positions

Pride Of Burgundy

Operator: P & O Ferries

Last reported at 2017-Nov-24 09:30 UTC. Time now 2017-Nov-24 09:34 UTC.
Position N 51°06' E 001°25'.

Length 180 m; draft 6.2 m.

Type: Passenger vessel. MMSI: 232001470.

Date/timePositionNaut miles runAvg speedWind from/ knotsBaromVisibWave heightAir tempDewpointWater temp
2017-Nov-24 09:30N 51°06' E 001°25'918.3
2017-Nov-24 09:01N 51°01' E 001°37'917.7
2017-Nov-24 08:31N 50°58' E 001°51'1 1.5
2017-Nov-24 08:00N 50°58' E 001°52'0 0.0
2017-Nov-24 07:30N 50°58' E 001°52'0 0.0
2017-Nov-24 07:00N 50°58' E 001°52'0 1.0
2017-Nov-24 06:31N 50°58' E 001°51'816.7
2017-Nov-24 06:00N 50°59' E 001°38'918.6
2017-Nov-24 05:31N 51°06' E 001°28'510.0
2017-Nov-24 05:00N 51°07' E 001°20'0 0.0
2017-Nov-24 04:30N 51°07' E 001°20'1 1.7
2017-Nov-24 04:00N 51°07' E 001°19'0 0.0
2017-Nov-24 03:30N 51°07' E 001°19'0 0.0
2017-Nov-24 03:00N 51°07' E 001°19'0 0.0
2017-Nov-24 02:30N 51°07' E 001°19'0 0.0
2017-Nov-24 02:00N 51°07' E 001°19'0 0.0
2017-Nov-24 01:30N 51°07' E 001°19'0 0.0
2017-Nov-24 01:00N 51°07' E 001°19'0 0.0
2017-Nov-24 00:30N 51°07' E 001°19'0 0.0
2017-Nov-24 00:00N 51°07' E 001°19'0 0.0
2017-Nov-23 23:30N 51°07' E 001°19'0 0.0
2017-Nov-23 23:00N 51°07' E 001°19'0 0.0
2017-Nov-23 22:30N 51°07' E 001°19'0 0.0
2017-Nov-23 22:00N 51°07' E 001°19'3 5.2
2017-Nov-23 21:30N 51°04' E 001°20'3 6.2
2017-Nov-23 20:59N 51°07' E 001°20'0 0.2
2017-Nov-23 20:30N 51°07' E 001°20'714.8
2017-Nov-23 20:01N 51°05' E 001°32'918.0
2017-Nov-23 19:31N 50°59' E 001°42'611.6
2017-Nov-23 19:00N 50°58' E 001°51'0 0.0
2017-Nov-23 18:30N 50°58' E 001°51'1 2.6
2017-Nov-23 18:00N 50°58' E 001°49'917.8
2017-Nov-23 17:30N 51°01' E 001°35'918.9
2017-Nov-23 17:01N 51°06' E 001°23'2 4.7
2017-Nov-23 16:30N 51°07' E 001°20'0 0.0
2017-Nov-23 16:00N 51°07' E 001°20'4 8.7
2017-Nov-23 15:31N 51°07' E 001°27'815.3
2017-Nov-23 15:01N 51°03' E 001°37'815.7
2017-Nov-23 14:30N 50°58' E 001°47'3 5.8
2017-Nov-23 14:01N 50°58' E 001°52'0 0.0
2017-Nov-23 13:30N 50°58' E 001°52'0 0.0
2017-Nov-23 13:01N 50°58' E 001°52'3 5.1
2017-Nov-23 12:31N 50°58' E 001°48'817.0
2017-Nov-23 12:00N 51°01' E 001°35'918.4
2017-Nov-23 11:30N 51°06' E 001°23'2 4.1
2017-Nov-23 11:00N 51°07' E 001°20'0 0.0
2017-Nov-23 10:30N 51°07' E 001°20'3 5.1
2017-Nov-23 10:00N 51°07' E 001°24'917.5
2017-Nov-23 09:30N 51°02' E 001°36'917.1
2017-Nov-23 09:00N 50°58' E 001°48'2 4.6
2017-Nov-23 08:30N 50°58' E 001°52'0 0.0
2017-Nov-23 08:00N 50°58' E 001°52'4 7.8
2017-Nov-23 07:30N 50°58' E 001°46'917.4
2017-Nov-23 07:00N 51°01' E 001°33'918.0
2017-Nov-23 06:30N 51°07' E 001°21'1 2.0
2017-Nov-23 06:00N 51°07' E 001°20'0 0.0
2017-Nov-23 05:29N 51°07' E 001°20'0 0.3
2017-Nov-23 05:00N 51°07' E 001°20'3 6.3
2017-Nov-23 04:31N 51°07' E 001°25'1 2.9
2017-Nov-23 04:00N 51°08' E 001°25'714.2
2017-Nov-23 03:31N 51°04' E 001°35'816.3
2017-Nov-23 03:01N 50°59' E 001°44'5 9.7
2017-Nov-23 02:30N 50°58' E 001°52'0 0.0
2017-Nov-23 02:00N 50°58' E 001°52'0 0.0
2017-Nov-23 01:30N 50°58' E 001°52'0 0.0
2017-Nov-23 01:01N 50°58' E 001°52'0 0.0
2017-Nov-23 00:30N 50°58' E 001°52'0 0.0
2017-Nov-23 00:00N 50°58' E 001°52'0 0.0
2017-Nov-22 23:30N 50°58' E 001°52'0 0.0
2017-Nov-22 23:00N 50°58' E 001°52'0 0.0
2017-Nov-22 22:31N 50°58' E 001°52'0 0.0
2017-Nov-22 22:00N 50°58' E 001°52'0 0.0
2017-Nov-22 21:30N 50°58' E 001°52'3 6.8
2017-Nov-22 21:00N 50°58' E 001°46'713.1
2017-Nov-22 20:31N 51°00' E 001°37'917.6
2017-Nov-22 20:01N 51°06' E 001°25'4 7.5
2017-Nov-22 19:30N 51°07' E 001°20'  
2017-Nov-20 00:30N 50°58' E 001°52'0 0.0
2017-Nov-20 00:00N 50°58' E 001°52'0 0.0
2017-Nov-19 23:30N 50°58' E 001°52'0 0.0
2017-Nov-19 23:00N 50°58' E 001°52'0 0.0
2017-Nov-19 22:29N 50°58' E 001°52'0 0.0
2017-Nov-19 22:00N 50°58' E 001°52'0 0.0
2017-Nov-19 21:30N 50°58' E 001°52'0 0.0
2017-Nov-19 21:00N 50°58' E 001°52'3 5.1
2017-Nov-19 20:31N 50°58' E 001°48'917.3
2017-Nov-19 20:01N 51°01' E 001°35'918.7
2017-Nov-19 19:31N 51°06' E 001°22'2 3.6
2017-Nov-19 19:01N 51°07' E 001°20'1 1.3
2017-Nov-19 18:30N 51°07' E 001°21'918.1
2017-Nov-19 18:01N 51°02' E 001°33'1019.2
2017-Nov-19 17:30N 50°58' E 001°47'3 5.5
2017-Nov-19 17:01N 50°58' E 001°51'0 0.0
2017-Nov-19 16:30N 50°58' E 001°51'1 1.0
2017-Nov-19 16:01N 50°58' E 001°50'816.8
2017-Nov-19 15:31N 51°00' E 001°37'1019.6
2017-Nov-19 15:01N 51°06' E 001°24'3 6.3
2017-Nov-19 14:30N 51°07' E 001°20'0 0.0
2017-Nov-19 13:59N 51°07' E 001°20'4 7.9
2017-Nov-19 13:31N 51°07' E 001°26'917.3
2017-Nov-19 13:00N 51°02' E 001°37'816.0
2017-Nov-19 12:30N 50°58' E 001°49'1 2.9
2017-Nov-19 12:00N 50°58' E 001°51'0 0.0
2017-Nov-19 11:31N 50°58' E 001°51'510.7
2017-Nov-19 11:00N 50°59' E 001°42'1019.8
2017-Nov-19 10:31N 51°04' E 001°30'713.3
2017-Nov-19 10:00N 51°07' E 001°20'0 0.0
2017-Nov-19 09:30N 51°07' E 001°20'1 1.2
2017-Nov-19 09:00N 51°07' E 001°21'917.9
2017-Nov-19 08:30N 51°04' E 001°34'918.8
2017-Nov-19 08:01N 50°58' E 001°46'3 6.6
2017-Nov-19 07:30N 50°58' E 001°51'0 0.0
2017-Nov-19 07:01N 50°58' E 001°51'0 0.0
2017-Nov-19 06:30N 50°58' E 001°51'0 0.0
2017-Nov-19 06:00N 50°58' E 001°51'0 0.0
2017-Nov-19 05:30N 50°58' E 001°51'0 0.0
2017-Nov-19 05:00N 50°58' E 001°51'0 0.0
2017-Nov-19 04:31N 50°58' E 001°51'0 0.0
2017-Nov-19 04:00N 50°58' E 001°51'0 0.0
2017-Nov-19 03:30N 50°58' E 001°51'0 0.0
2017-Nov-19 03:00N 50°58' E 001°51'0 0.0
2017-Nov-19 02:30N 50°58' E 001°51'0 0.7
2017-Nov-19 02:01N 50°58' E 001°51'917.6
2017-Nov-19 01:30N 51°00' E 001°37'1019.9
2017-Nov-19 01:00N 51°06' E 001°24'3 5.5
2017-Nov-19 00:29N 51°07' E 001°20'0 0.3
2017-Nov-19 00:00N 51°07' E 001°20'715.0
2017-Nov-18 23:30N 51°05' E 001°32'917.8
2017-Nov-18 23:00N 50°60' E 001°42'611.5
2017-Nov-18 22:30N 50°58' E 001°51'0 0.0
2017-Nov-18 22:00N 50°58' E 001°51'1 2.4
2017-Nov-18 21:30N 50°58' E 001°49'918.2
2017-Nov-18 21:01N 51°00' E 001°35'919.0
2017-Nov-18 20:31N 51°06' E 001°23'2 4.9
2017-Nov-18 20:00N 51°07' E 001°20'0 0.0
2017-Nov-18 19:29N 51°07' E 001°20'0 0.0
2017-Nov-18 19:00N 51°07' E 001°20'1 1.1
2017-Nov-18 18:30N 51°07' E 001°21'918.6
2017-Nov-18 18:00N 51°03' E 001°34'918.7
2017-Nov-18 17:30N 50°58' E 001°46'3 5.7
2017-Nov-18 17:01N 50°58' E 001°51'0 0.0
2017-Nov-18 16:30N 50°58' E 001°51'0 0.1
2017-Nov-18 16:01N 50°58' E 001°51'815.5
2017-Nov-18 15:30N 50°59' E 001°39'1019.4
2017-Nov-18 15:01N 51°04' E 001°26'5 9.5
2017-Nov-18 14:30N 51°07' E 001°20'0 0.0
2017-Nov-18 14:00N 51°07' E 001°20'3 6.7
2017-Nov-18 13:31N 51°06' E 001°25'918.0
2017-Nov-18 13:00N 51°01' E 001°37'816.2
2017-Nov-18 12:30N 50°58' E 001°49'1 2.5
2017-Nov-18 12:00N 50°58' E 001°51'0 0.0
2017-Nov-18 11:30N 50°58' E 001°51'511.0
2017-Nov-18 11:00N 50°58' E 001°42'1019.8
2017-Nov-18 10:30N 51°04' E 001°29'712.6
2017-Nov-18 09:59N 51°07' E 001°20'0 0.0
2017-Nov-18 09:30N 51°07' E 001°20'0 0.3
2017-Nov-18 09:00N 51°07' E 001°20'815.9
2017-Nov-18 08:31N 51°03' E 001°30'1019.0
2017-Nov-18 08:01N 50°58' E 001°44'4 9.0
2017-Nov-18 07:30N 50°58' E 001°51'0 0.0
2017-Nov-18 07:00N 50°58' E 001°51'3 6.0
2017-Nov-18 06:31N 50°58' E 001°46'917.0
2017-Nov-18 06:00N 51°01' E 001°33'918.5
2017-Nov-18 05:30N 51°07' E 001°22'1 2.7
2017-Nov-18 05:00N 51°07' E 001°20'0 0.0
2017-Nov-18 04:31N 51°07' E 001°20'2 3.8
2017-Nov-18 04:00N 51°07' E 001°23'917.1
2017-Nov-18 03:30N 51°04' E 001°36'816.7
2017-Nov-18 03:00N 50°58' E 001°45'3 7.0
2017-Nov-18 02:31N 50°58' E 001°51'0 0.0
2017-Nov-18 02:01N 50°58' E 001°51'0 0.0
2017-Nov-18 01:31N 50°58' E 001°51'0 0.0
2017-Nov-18 01:00N 50°58' E 001°51'0 0.0
2017-Nov-18 00:31N 50°58' E 001°51'0 0.0
2017-Nov-18 00:00N 50°58' E 001°51'0 0.0
2017-Nov-17 23:30N 50°58' E 001°51'0 0.0
2017-Nov-17 23:01N 50°58' E 001°51'0 0.0
2017-Nov-17 22:30N 50°58' E 001°51'0 0.0
2017-Nov-17 22:00N 50°58' E 001°51'0 0.0
2017-Nov-17 21:30N 50°58' E 001°51'0 0.0
2017-Nov-17 21:00N 50°58' E 001°51'0 0.0
2017-Nov-17 20:31N 50°58' E 001°51'612.2
2017-Nov-17 20:01N 50°59' E 001°41'918.8
2017-Nov-17 19:31N 51°04' E 001°29'712.7
2017-Nov-17 18:59N 51°07' E 001°20'0 0.0
2017-Nov-17 18:30N 51°07' E 001°20'3 5.2
2017-Nov-17 18:00N 51°07' E 001°24'1019.5
2017-Nov-17 17:30N 51°02' E 001°37'917.8
2017-Nov-17 17:00N 50°58' E 001°51'0 0.7
2017-Nov-17 16:30N 50°58' E 001°51'1 1.5
2017-Nov-17 16:01N 50°58' E 001°50'816.9
2017-Nov-17 15:30N 50°60' E 001°37'1019.2
2017-Nov-17 15:01N 51°05' E 001°24'4 6.9
2017-Nov-17 14:30N 51°07' E 001°20'0 0.0
2017-Nov-17 14:00N 51°07' E 001°20'4 8.8
2017-Nov-17 13:30N 51°07' E 001°27'917.9
2017-Nov-17 13:00N 51°01' E 001°38'816.6
2017-Nov-17 12:30N 50°58' E 001°50'1 1.2
2017-Nov-17 12:01N 50°58' E 001°51'0 0.0
2017-Nov-17 11:30N 50°58' E 001°51'714.9
2017-Nov-17 11:00N 50°59' E 001°39'1019.7
2017-Nov-17 10:30N 51°04' E 001°26'5 9.8
2017-Nov-17 10:00N 51°07' E 001°20'0 0.0
2017-Nov-17 09:30N 51°07' E 001°20'0 0.5
2017-Nov-17 09:00N 51°07' E 001°20'714.8
2017-Nov-17 08:30N 51°04' E 001°30'918.8
2017-Nov-17 08:00N 50°58' E 001°43'510.3
2017-Nov-17 07:30N 50°58' E 001°51'0 0.0
2017-Nov-17 07:00N 50°58' E 001°51'3 5.7
2017-Nov-17 06:30N 50°58' E 001°46'816.8
2017-Nov-17 06:00N 51°01' E 001°34'918.4
2017-Nov-17 05:31N 51°07' E 001°22'2 3.3
2017-Nov-17 05:00N 51°07' E 001°20'0 0.0
2017-Nov-17 04:30N 51°07' E 001°20'2 4.3
2017-Nov-17 04:00N 51°07' E 001°23'713.1
2017-Nov-17 03:30N 51°04' E 001°33'713.9
2017-Nov-17 03:01N 50°60' E 001°41'612.6
2017-Nov-17 02:31N 50°58' E 001°51'0 0.3
2017-Nov-17 02:01N 50°58' E 001°51'0 0.0
2017-Nov-17 01:30N 50°58' E 001°51'0 0.0
2017-Nov-17 01:01N 50°58' E 001°51'0 0.0
2017-Nov-17 00:30N 50°58' E 001°51'0 0.0
2017-Nov-17 00:01N 50°58' E 001°51'0 0.0
2017-Nov-16 23:30N 50°58' E 001°51'0 0.0
2017-Nov-16 23:00N 50°58' E 001°51'0 0.0
2017-Nov-16 22:31N 50°58' E 001°51'0 0.0
2017-Nov-16 22:00N 50°58' E 001°51'0 0.0
2017-Nov-16 21:30N 50°58' E 001°51'0 0.0
2017-Nov-16 21:01N 50°58' E 001°51'3 5.6
2017-Nov-16 20:30N 50°58' E 001°47'918.6
2017-Nov-16 20:01N 51°02' E 001°33'918.6
2017-Nov-16 19:30N 51°07' E 001°21'1 1.4
2017-Nov-16 19:00N 51°07' E 001°20'0 0.3
2017-Nov-16 18:30N 51°07' E 001°20'917.4
2017-Nov-16 18:00N 51°04' E 001°33'1019.2
2017-Nov-16 17:31N 50°58' E 001°45'4 7.6
2017-Nov-16 17:00N 50°58' E 001°51'0 0.0
2017-Nov-16 16:30N 50°58' E 001°51'2 4.8
2017-Nov-16 16:00N 50°58' E 001°47'917.7
2017-Nov-16 15:31N 51°01' E 001°34'1019.0
2017-Nov-16 15:00N 51°07' E 001°21'1 2.0
2017-Nov-16 14:30N 51°07' E 001°20'0 0.0
2017-Nov-16 14:00N 51°07' E 001°20'4 8.3
2017-Nov-16 13:31N 51°06' E 001°26'918.6
2017-Nov-16 13:01N 51°01' E 001°39'816.0
2017-Nov-16 12:30N 50°58' E 001°51'0 0.6
2017-Nov-16 12:00N 50°58' E 001°51'0 0.9
2017-Nov-16 11:30N 50°58' E 001°50'1019.9
2017-Nov-16 11:00N 50°59' E 001°35'918.9
2017-Nov-16 10:30N 51°06' E 001°23'3 5.4
2017-Nov-16 10:00N 51°07' E 001°20'0 0.0
2017-Nov-16 09:30N 51°07' E 001°20'3 6.1
2017-Nov-16 09:00N 51°06' E 001°25'918.7
2017-Nov-16 08:30N 51°01' E 001°37'816.8
2017-Nov-16 08:00N 50°58' E 001°50'1 1.7
2017-Nov-16 07:30N 50°58' E 001°51'0 0.0
2017-Nov-16 07:00N 50°58' E 001°51'3 6.6
2017-Nov-16 06:30N 50°58' E 001°46'917.2
2017-Nov-16 06:00N 51°01' E 001°33'918.6
2017-Nov-16 05:30N 51°07' E 001°21'1 1.9
2017-Nov-16 05:00N 51°07' E 001°20'0 0.0
2017-Nov-16 04:30N 51°07' E 001°20'1 2.9
2017-Nov-16 04:01N 51°07' E 001°22'815.5
2017-Nov-16 03:30N 51°03' E 001°33'714.4
2017-Nov-16 03:00N 50°59' E 001°43'510.8
2017-Nov-16 02:30N 50°58' E 001°51'0 0.0
2017-Nov-16 02:00N 50°58' E 001°51'0 0.0
2017-Nov-16 01:30N 50°58' E 001°51'0 0.0
2017-Nov-16 01:00N 50°58' E 001°51'0 0.0
2017-Nov-16 00:30N 50°58' E 001°51'0 0.0
2017-Nov-16 00:00N 50°58' E 001°51'0 0.0
2017-Nov-15 23:30N 50°58' E 001°51'0 0.0
2017-Nov-15 23:00N 50°58' E 001°51'0 0.0
2017-Nov-15 22:30N 50°58' E 001°51'0 0.0
2017-Nov-15 22:00N 50°58' E 001°51'0 0.0
2017-Nov-15 21:30N 50°58' E 001°51'3 6.7
2017-Nov-15 21:01N 50°58' E 001°46'1019.4
2017-Nov-15 20:30N 50°60' E 001°30'918.2
2017-Nov-15 20:00N 51°07' E 001°21'1 1.8
2017-Nov-15 19:30N 51°07' E 001°20'0 0.3
2017-Nov-15 18:59N 51°07' E 001°20'714.6
2017-Nov-15 18:31N 51°06' E 001°31'918.7
2017-Nov-15 18:01N 50°59' E 001°42'611.5
2017-Nov-15 17:31N 50°58' E 001°51'0 0.0
2017-Nov-15 17:01N 50°58' E 001°51'0 0.6
2017-Nov-15 16:30N 50°58' E 001°51'815.9
2017-Nov-15 16:00N 50°58' E 001°38'815.2
2017-Nov-15 15:31N 51°03' E 001°30'714.9
2017-Nov-15 15:00N 51°07' E 001°20'0 0.0
2017-Nov-15 14:29N 51°07' E 001°20'0 0.2
2017-Nov-15 14:00N 51°07' E 001°20'715.0
2017-Nov-15 13:30N 51°05' E 001°31'918.9
2017-Nov-15 13:00N 50°59' E 001°43'510.3
2017-Nov-15 12:30N 50°58' E 001°51'0 0.0
2017-Nov-15 12:00N 50°58' E 001°51'0 0.6
2017-Nov-15 11:30N 50°58' E 001°51'917.8
2017-Nov-15 11:00N 51°00' E 001°37'919.0
2017-Nov-15 10:30N 51°06' E 001°25'3 6.0
2017-Nov-15 09:58N 51°07' E 001°20'0 0.0
2017-Nov-15 09:31N 51°07' E 001°20'2 4.5
2017-Nov-15 09:01N 51°07' E 001°24'816.6
2017-Nov-15 08:30N 51°05' E 001°36'917.4
2017-Nov-15 08:01N 50°58' E 001°45'4 7.1
2017-Nov-15 07:30N 50°58' E 001°51'0 0.0
2017-Nov-15 07:00N 50°58' E 001°51'1 2.9
2017-Nov-15 06:30N 50°58' E 001°49'917.6
2017-Nov-15 06:00N 50°60' E 001°35'918.5
2017-Nov-15 05:30N 51°06' E 001°24'3 5.5
2017-Nov-15 05:00N 51°07' E 001°20'0 0.0
2017-Nov-15 04:30N 51°07' E 001°20'0 0.3
2017-Nov-15 04:00N 51°07' E 001°20'714.3
2017-Nov-15 03:30N 51°05' E 001°31'816.2
2017-Nov-15 03:00N 51°00' E 001°42'612.6
2017-Nov-15 02:31N 50°58' E 001°51'0 0.2
2017-Nov-15 02:01N 50°58' E 001°51'0 0.0
2017-Nov-15 01:31N 50°58' E 001°51'3 5.8
2017-Nov-15 01:00N 50°58' E 001°46'918.5
2017-Nov-15 00:30N 51°02' E 001°34'1018.9
2017-Nov-15 00:00N 51°07' E 001°20'0 0.6
2017-Nov-14 23:30N 51°07' E 001°20'4 8.8
2017-Nov-14 23:00N 51°06' E 001°27'918.0
2017-Nov-14 22:30N 51°02' E 001°39'815.2
2017-Nov-14 22:01N 50°58' E 001°50'1 1.4
2017-Nov-14 21:30N 50°58' E 001°51'1 2.1
2017-Nov-14 21:00N 50°58' E 001°49'918.7
2017-Nov-14 20:30N 51°01' E 001°35'918.8
2017-Nov-14 20:00N 51°06' E 001°23'2 4.2
2017-Nov-14 19:30N 51°07' E 001°20'0 0.0
2017-Nov-14 19:00N 51°07' E 001°20'3 5.6
2017-Nov-14 18:30N 51°07' E 001°24'918.6
2017-Nov-14 18:00N 51°02' E 001°37'917.1
2017-Nov-14 17:31N 50°58' E 001°49'1 2.1
2017-Nov-14 17:01N 50°58' E 001°51'0 0.0
2017-Nov-14 16:30N 50°58' E 001°51'612.6
2017-Nov-14 16:00N 50°58' E 001°41'917.9
2017-Nov-14 15:31N 51°03' E 001°29'714.3
2017-Nov-14 15:00N 51°07' E 001°20'0 0.0
2017-Nov-14 14:30N 51°07' E 001°20'0 0.0
2017-Nov-14 14:00N 51°07' E 001°20'612.8
2017-Nov-14 13:31N 51°05' E 001°30'918.3
2017-Nov-14 13:01N 50°60' E 001°41'612.8
2017-Nov-14 12:31N 50°58' E 001°51'0 0.0
2017-Nov-14 12:01N 50°58' E 001°51'1 1.5
2017-Nov-14 11:30N 50°58' E 001°50'1019.5
2017-Nov-14 11:01N 50°57' E 001°35'917.7
2017-Nov-14 10:30N 51°05' E 001°27'5 9.9
2017-Nov-14 10:00N 51°07' E 001°20'  
Track history (hours):
 
Tides and Currents Weather Stations Pressure Air Temp Water Temp Dewpoint Dewpoint Depression Visibility Wind Speed Wind Dir Waves Ship Positions

Pride Of Burgundy

Operator: P & O Ferries

Last reported at 2017-Nov-24 09:30 UTC. Time now 2017-Nov-24 09:34 UTC.
Position N 51°06' E 001°25'.

Length 180 m; draft 6.2 m.

Type: Passenger vessel. MMSI: 232001470.

Date/timePositionNaut miles runAvg speedWind from/ knotsBaromVisibWave heightAir tempDewpointWater temp
2017-Nov-24 09:30N 51°06' E 001°25'918.3
2017-Nov-24 09:01N 51°01' E 001°37'917.7
2017-Nov-24 08:31N 50°58' E 001°51'1 1.5
2017-Nov-24 08:00N 50°58' E 001°52'0 0.0
2017-Nov-24 07:30N 50°58' E 001°52'0 0.0
2017-Nov-24 07:00N 50°58' E 001°52'0 1.0
2017-Nov-24 06:31N 50°58' E 001°51'816.7
2017-Nov-24 06:00N 50°59' E 001°38'918.6
2017-Nov-24 05:31N 51°06' E 001°28'510.0
2017-Nov-24 05:00N 51°07' E 001°20'0 0.0
2017-Nov-24 04:30N 51°07' E 001°20'1 1.7
2017-Nov-24 04:00N 51°07' E 001°19'0 0.0
2017-Nov-24 03:30N 51°07' E 001°19'0 0.0
2017-Nov-24 03:00N 51°07' E 001°19'0 0.0
2017-Nov-24 02:30N 51°07' E 001°19'0 0.0
2017-Nov-24 02:00N 51°07' E 001°19'0 0.0
2017-Nov-24 01:30N 51°07' E 001°19'0 0.0
2017-Nov-24 01:00N 51°07' E 001°19'0 0.0
2017-Nov-24 00:30N 51°07' E 001°19'0 0.0
2017-Nov-24 00:00N 51°07' E 001°19'0 0.0
2017-Nov-23 23:30N 51°07' E 001°19'0 0.0
2017-Nov-23 23:00N 51°07' E 001°19'0 0.0
2017-Nov-23 22:30N 51°07' E 001°19'0 0.0
2017-Nov-23 22:00N 51°07' E 001°19'3 5.2
2017-Nov-23 21:30N 51°04' E 001°20'3 6.2
2017-Nov-23 20:59N 51°07' E 001°20'0 0.2
2017-Nov-23 20:30N 51°07' E 001°20'714.8
2017-Nov-23 20:01N 51°05' E 001°32'918.0
2017-Nov-23 19:31N 50°59' E 001°42'611.6
2017-Nov-23 19:00N 50°58' E 001°51'0 0.0
2017-Nov-23 18:30N 50°58' E 001°51'1 2.6
2017-Nov-23 18:00N 50°58' E 001°49'917.8
2017-Nov-23 17:30N 51°01' E 001°35'918.9
2017-Nov-23 17:01N 51°06' E 001°23'2 4.7
2017-Nov-23 16:30N 51°07' E 001°20'0 0.0
2017-Nov-23 16:00N 51°07' E 001°20'4 8.7
2017-Nov-23 15:31N 51°07' E 001°27'815.3
2017-Nov-23 15:01N 51°03' E 001°37'815.7
2017-Nov-23 14:30N 50°58' E 001°47'3 5.8
2017-Nov-23 14:01N 50°58' E 001°52'0 0.0
2017-Nov-23 13:30N 50°58' E 001°52'0 0.0
2017-Nov-23 13:01N 50°58' E 001°52'3 5.1
2017-Nov-23 12:31N 50°58' E 001°48'817.0
2017-Nov-23 12:00N 51°01' E 001°35'918.4
2017-Nov-23 11:30N 51°06' E 001°23'2 4.1
2017-Nov-23 11:00N 51°07' E 001°20'0 0.0
2017-Nov-23 10:30N 51°07' E 001°20'3 5.1
2017-Nov-23 10:00N 51°07' E 001°24'917.5
2017-Nov-23 09:30N 51°02' E 001°36'917.1
2017-Nov-23 09:00N 50°58' E 001°48'2 4.6
2017-Nov-23 08:30N 50°58' E 001°52'0 0.0
2017-Nov-23 08:00N 50°58' E 001°52'4 7.8
2017-Nov-23 07:30N 50°58' E 001°46'917.4
2017-Nov-23 07:00N 51°01' E 001°33'918.0
2017-Nov-23 06:30N 51°07' E 001°21'1 2.0
2017-Nov-23 06:00N 51°07' E 001°20'0 0.0
2017-Nov-23 05:29N 51°07' E 001°20'0 0.3
2017-Nov-23 05:00N 51°07' E 001°20'3 6.3
2017-Nov-23 04:31N 51°07' E 001°25'1 2.9
2017-Nov-23 04:00N 51°08' E 001°25'714.2
2017-Nov-23 03:31N 51°04' E 001°35'816.3
2017-Nov-23 03:01N 50°59' E 001°44'5 9.7
2017-Nov-23 02:30N 50°58' E 001°52'0 0.0
2017-Nov-23 02:00N 50°58' E 001°52'0 0.0
2017-Nov-23 01:30N 50°58' E 001°52'0 0.0
2017-Nov-23 01:01N 50°58' E 001°52'0 0.0
2017-Nov-23 00:30N 50°58' E 001°52'0 0.0
2017-Nov-23 00:00N 50°58' E 001°52'0 0.0
2017-Nov-22 23:30N 50°58' E 001°52'0 0.0
2017-Nov-22 23:00N 50°58' E 001°52'0 0.0
2017-Nov-22 22:31N 50°58' E 001°52'0 0.0
2017-Nov-22 22:00N 50°58' E 001°52'0 0.0
2017-Nov-22 21:30N 50°58' E 001°52'3 6.8
2017-Nov-22 21:00N 50°58' E 001°46'713.1
2017-Nov-22 20:31N 51°00' E 001°37'917.6
2017-Nov-22 20:01N 51°06' E 001°25'4 7.5
2017-Nov-22 19:30N 51°07' E 001°20'  
2017-Nov-20 00:30N 50°58' E 001°52'0 0.0
2017-Nov-20 00:00N 50°58' E 001°52'0 0.0
2017-Nov-19 23:30N 50°58' E 001°52'0 0.0
2017-Nov-19 23:00N 50°58' E 001°52'0 0.0
2017-Nov-19 22:29N 50°58' E 001°52'0 0.0
2017-Nov-19 22:00N 50°58' E 001°52'0 0.0
2017-Nov-19 21:30N 50°58' E 001°52'0 0.0
2017-Nov-19 21:00N 50°58' E 001°52'3 5.1
2017-Nov-19 20:31N 50°58' E 001°48'917.3
2017-Nov-19 20:01N 51°01' E 001°35'918.7
2017-Nov-19 19:31N 51°06' E 001°22'2 3.6
2017-Nov-19 19:01N 51°07' E 001°20'1 1.3
2017-Nov-19 18:30N 51°07' E 001°21'918.1
2017-Nov-19 18:01N 51°02' E 001°33'1019.2
2017-Nov-19 17:30N 50°58' E 001°47'3 5.5
2017-Nov-19 17:01N 50°58' E 001°51'0 0.0
2017-Nov-19 16:30N 50°58' E 001°51'1 1.0
2017-Nov-19 16:01N 50°58' E 001°50'816.8
2017-Nov-19 15:31N 51°00' E 001°37'1019.6
2017-Nov-19 15:01N 51°06' E 001°24'3 6.3
2017-Nov-19 14:30N 51°07' E 001°20'0 0.0
2017-Nov-19 13:59N 51°07' E 001°20'4 7.9
2017-Nov-19 13:31N 51°07' E 001°26'917.3
2017-Nov-19 13:00N 51°02' E 001°37'816.0
2017-Nov-19 12:30N 50°58' E 001°49'1 2.9
2017-Nov-19 12:00N 50°58' E 001°51'0 0.0
2017-Nov-19 11:31N 50°58' E 001°51'510.7
2017-Nov-19 11:00N 50°59' E 001°42'1019.8
2017-Nov-19 10:31N 51°04' E 001°30'713.3
2017-Nov-19 10:00N 51°07' E 001°20'0 0.0
2017-Nov-19 09:30N 51°07' E 001°20'1 1.2
2017-Nov-19 09:00N 51°07' E 001°21'917.9
2017-Nov-19 08:30N 51°04' E 001°34'918.8
2017-Nov-19 08:01N 50°58' E 001°46'3 6.6
2017-Nov-19 07:30N 50°58' E 001°51'0 0.0
2017-Nov-19 07:01N 50°58' E 001°51'0 0.0
2017-Nov-19 06:30N 50°58' E 001°51'0 0.0
2017-Nov-19 06:00N 50°58' E 001°51'0 0.0
2017-Nov-19 05:30N 50°58' E 001°51'0 0.0
2017-Nov-19 05:00N 50°58' E 001°51'0 0.0
2017-Nov-19 04:31N 50°58' E 001°51'0 0.0
2017-Nov-19 04:00N 50°58' E 001°51'0 0.0
2017-Nov-19 03:30N 50°58' E 001°51'0 0.0
2017-Nov-19 03:00N 50°58' E 001°51'0 0.0
2017-Nov-19 02:30N 50°58' E 001°51'0 0.7
2017-Nov-19 02:01N 50°58' E 001°51'917.6
2017-Nov-19 01:30N 51°00' E 001°37'1019.9
2017-Nov-19 01:00N 51°06' E 001°24'3 5.5
2017-Nov-19 00:29N 51°07' E 001°20'0 0.3
2017-Nov-19 00:00N 51°07' E 001°20'715.0
2017-Nov-18 23:30N 51°05' E 001°32'917.8
2017-Nov-18 23:00N 50°60' E 001°42'611.5
2017-Nov-18 22:30N 50°58' E 001°51'0 0.0
2017-Nov-18 22:00N 50°58' E 001°51'1 2.4
2017-Nov-18 21:30N 50°58' E 001°49'918.2
2017-Nov-18 21:01N 51°00' E 001°35'919.0
2017-Nov-18 20:31N 51°06' E 001°23'2 4.9
2017-Nov-18 20:00N 51°07' E 001°20'0 0.0
2017-Nov-18 19:29N 51°07' E 001°20'0 0.0
2017-Nov-18 19:00N 51°07' E 001°20'1 1.1
2017-Nov-18 18:30N 51°07' E 001°21'918.6
2017-Nov-18 18:00N 51°03' E 001°34'918.7
2017-Nov-18 17:30N 50°58' E 001°46'3 5.7
2017-Nov-18 17:01N 50°58' E 001°51'0 0.0
2017-Nov-18 16:30N 50°58' E 001°51'0 0.1
2017-Nov-18 16:01N 50°58' E 001°51'815.5
2017-Nov-18 15:30N 50°59' E 001°39'1019.4
2017-Nov-18 15:01N 51°04' E 001°26'5 9.5
2017-Nov-18 14:30N 51°07' E 001°20'0 0.0
2017-Nov-18 14:00N 51°07' E 001°20'3 6.7
2017-Nov-18 13:31N 51°06' E 001°25'918.0
2017-Nov-18 13:00N 51°01' E 001°37'816.2
2017-Nov-18 12:30N 50°58' E 001°49'1 2.5
2017-Nov-18 12:00N 50°58' E 001°51'0 0.0
2017-Nov-18 11:30N 50°58' E 001°51'511.0
2017-Nov-18 11:00N 50°58' E 001°42'1019.8
2017-Nov-18 10:30N 51°04' E 001°29'712.6
2017-Nov-18 09:59N 51°07' E 001°20'0 0.0
2017-Nov-18 09:30N 51°07' E 001°20'0 0.3
2017-Nov-18 09:00N 51°07' E 001°20'815.9
2017-Nov-18 08:31N 51°03' E 001°30'1019.0
2017-Nov-18 08:01N 50°58' E 001°44'4 9.0
2017-Nov-18 07:30N 50°58' E 001°51'0 0.0
2017-Nov-18 07:00N 50°58' E 001°51'3 6.0
2017-Nov-18 06:31N 50°58' E 001°46'917.0
2017-Nov-18 06:00N 51°01' E 001°33'918.5
2017-Nov-18 05:30N 51°07' E 001°22'1 2.7
2017-Nov-18 05:00N 51°07' E 001°20'0 0.0
2017-Nov-18 04:31N 51°07' E 001°20'2 3.8
2017-Nov-18 04:00N 51°07' E 001°23'917.1
2017-Nov-18 03:30N 51°04' E 001°36'816.7
2017-Nov-18 03:00N 50°58' E 001°45'3 7.0
2017-Nov-18 02:31N 50°58' E 001°51'0 0.0
2017-Nov-18 02:01N 50°58' E 001°51'0 0.0
2017-Nov-18 01:31N 50°58' E 001°51'0 0.0
2017-Nov-18 01:00N 50°58' E 001°51'0 0.0
2017-Nov-18 00:31N 50°58' E 001°51'0 0.0
2017-Nov-18 00:00N 50°58' E 001°51'0 0.0
2017-Nov-17 23:30N 50°58' E 001°51'0 0.0
2017-Nov-17 23:01N 50°58' E 001°51'0 0.0
2017-Nov-17 22:30N 50°58' E 001°51'0 0.0
2017-Nov-17 22:00N 50°58' E 001°51'0 0.0
2017-Nov-17 21:30N 50°58' E 001°51'0 0.0
2017-Nov-17 21:00N 50°58' E 001°51'0 0.0
2017-Nov-17 20:31N 50°58' E 001°51'612.2
2017-Nov-17 20:01N 50°59' E 001°41'918.8
2017-Nov-17 19:31N 51°04' E 001°29'712.7
2017-Nov-17 18:59N 51°07' E 001°20'0 0.0
2017-Nov-17 18:30N 51°07' E 001°20'3 5.2
2017-Nov-17 18:00N 51°07' E 001°24'1019.5
2017-Nov-17 17:30N 51°02' E 001°37'917.8
2017-Nov-17 17:00N 50°58' E 001°51'0 0.7
2017-Nov-17 16:30N 50°58' E 001°51'1 1.5
2017-Nov-17 16:01N 50°58' E 001°50'816.9
2017-Nov-17 15:30N 50°60' E 001°37'1019.2
2017-Nov-17 15:01N 51°05' E 001°24'4 6.9
2017-Nov-17 14:30N 51°07' E 001°20'0 0.0
2017-Nov-17 14:00N 51°07' E 001°20'4 8.8
2017-Nov-17 13:30N 51°07' E 001°27'917.9
2017-Nov-17 13:00N 51°01' E 001°38'816.6
2017-Nov-17 12:30N 50°58' E 001°50'1 1.2
2017-Nov-17 12:01N 50°58' E 001°51'0 0.0
2017-Nov-17 11:30N 50°58' E 001°51'714.9
2017-Nov-17 11:00N 50°59' E 001°39'1019.7
2017-Nov-17 10:30N 51°04' E 001°26'5 9.8
2017-Nov-17 10:00N 51°07' E 001°20'0 0.0
2017-Nov-17 09:30N 51°07' E 001°20'0 0.5
2017-Nov-17 09:00N 51°07' E 001°20'714.8
2017-Nov-17 08:30N 51°04' E 001°30'918.8
2017-Nov-17 08:00N 50°58' E 001°43'510.3
2017-Nov-17 07:30N 50°58' E 001°51'0 0.0
2017-Nov-17 07:00N 50°58' E 001°51'3 5.7
2017-Nov-17 06:30N 50°58' E 001°46'816.8
2017-Nov-17 06:00N 51°01' E 001°34'918.4
2017-Nov-17 05:31N 51°07' E 001°22'2 3.3
2017-Nov-17 05:00N 51°07' E 001°20'0 0.0
2017-Nov-17 04:30N 51°07' E 001°20'2 4.3
2017-Nov-17 04:00N 51°07' E 001°23'713.1
2017-Nov-17 03:30N 51°04' E 001°33'713.9
2017-Nov-17 03:01N 50°60' E 001°41'612.6
2017-Nov-17 02:31N 50°58' E 001°51'0 0.3
2017-Nov-17 02:01N 50°58' E 001°51'0 0.0
2017-Nov-17 01:30N 50°58' E 001°51'0 0.0
2017-Nov-17 01:01N 50°58' E 001°51'0 0.0
2017-Nov-17 00:30N 50°58' E 001°51'0 0.0
2017-Nov-17 00:01N 50°58' E 001°51'0 0.0
2017-Nov-16 23:30N 50°58' E 001°51'0 0.0
2017-Nov-16 23:00N 50°58' E 001°51'0 0.0
2017-Nov-16 22:31N 50°58' E 001°51'0 0.0
2017-Nov-16 22:00N 50°58' E 001°51'0 0.0
2017-Nov-16 21:30N 50°58' E 001°51'0 0.0
2017-Nov-16 21:01N 50°58' E 001°51'3 5.6
2017-Nov-16 20:30N 50°58' E 001°47'918.6
2017-Nov-16 20:01N 51°02' E 001°33'918.6
2017-Nov-16 19:30N 51°07' E 001°21'1 1.4
2017-Nov-16 19:00N 51°07' E 001°20'0 0.3
2017-Nov-16 18:30N 51°07' E 001°20'917.4
2017-Nov-16 18:00N 51°04' E 001°33'1019.2
2017-Nov-16 17:31N 50°58' E 001°45'4 7.6
2017-Nov-16 17:00N 50°58' E 001°51'0 0.0
2017-Nov-16 16:30N 50°58' E 001°51'2 4.8
2017-Nov-16 16:00N 50°58' E 001°47'917.7
2017-Nov-16 15:31N 51°01' E 001°34'1019.0
2017-Nov-16 15:00N 51°07' E 001°21'1 2.0
2017-Nov-16 14:30N 51°07' E 001°20'0 0.0
2017-Nov-16 14:00N 51°07' E 001°20'4 8.3
2017-Nov-16 13:31N 51°06' E 001°26'918.6
2017-Nov-16 13:01N 51°01' E 001°39'816.0
2017-Nov-16 12:30N 50°58' E 001°51'0 0.6
2017-Nov-16 12:00N 50°58' E 001°51'0 0.9
2017-Nov-16 11:30N 50°58' E 001°50'1019.9
2017-Nov-16 11:00N 50°59' E 001°35'918.9
2017-Nov-16 10:30N 51°06' E 001°23'3 5.4
2017-Nov-16 10:00N 51°07' E 001°20'0 0.0
2017-Nov-16 09:30N 51°07' E 001°20'3 6.1
2017-Nov-16 09:00N 51°06' E 001°25'918.7
2017-Nov-16 08:30N 51°01' E 001°37'816.8
2017-Nov-16 08:00N 50°58' E 001°50'1 1.7
2017-Nov-16 07:30N 50°58' E 001°51'0 0.0
2017-Nov-16 07:00N 50°58' E 001°51'3 6.6
2017-Nov-16 06:30N 50°58' E 001°46'917.2
2017-Nov-16 06:00N 51°01' E 001°33'918.6
2017-Nov-16 05:30N 51°07' E 001°21'1 1.9
2017-Nov-16 05:00N 51°07' E 001°20'0 0.0
2017-Nov-16 04:30N 51°07' E 001°20'1 2.9
2017-Nov-16 04:01N 51°07' E 001°22'815.5
2017-Nov-16 03:30N 51°03' E 001°33'714.4
2017-Nov-16 03:00N 50°59' E 001°43'510.8
2017-Nov-16 02:30N 50°58' E 001°51'0 0.0
2017-Nov-16 02:00N 50°58' E 001°51'0 0.0
2017-Nov-16 01:30N 50°58' E 001°51'0 0.0
2017-Nov-16 01:00N 50°58' E 001°51'0 0.0
2017-Nov-16 00:30N 50°58' E 001°51'0 0.0
2017-Nov-16 00:00N 50°58' E 001°51'0 0.0
2017-Nov-15 23:30N 50°58' E 001°51'0 0.0
2017-Nov-15 23:00N 50°58' E 001°51'0 0.0
2017-Nov-15 22:30N 50°58' E 001°51'0 0.0
2017-Nov-15 22:00N 50°58' E 001°51'0 0.0
2017-Nov-15 21:30N 50°58' E 001°51'3 6.7
2017-Nov-15 21:01N 50°58' E 001°46'1019.4
2017-Nov-15 20:30N 50°60' E 001°30'918.2
2017-Nov-15 20:00N 51°07' E 001°21'1 1.8
2017-Nov-15 19:30N 51°07' E 001°20'0 0.3
2017-Nov-15 18:59N 51°07' E 001°20'714.6
2017-Nov-15 18:31N 51°06' E 001°31'918.7
2017-Nov-15 18:01N 50°59' E 001°42'611.5
2017-Nov-15 17:31N 50°58' E 001°51'0 0.0
2017-Nov-15 17:01N 50°58' E 001°51'0 0.6
2017-Nov-15 16:30N 50°58' E 001°51'815.9
2017-Nov-15 16:00N 50°58' E 001°38'815.2
2017-Nov-15 15:31N 51°03' E 001°30'714.9
2017-Nov-15 15:00N 51°07' E 001°20'0 0.0
2017-Nov-15 14:29N 51°07' E 001°20'0 0.2
2017-Nov-15 14:00N 51°07' E 001°20'715.0
2017-Nov-15 13:30N 51°05' E 001°31'918.9
2017-Nov-15 13:00N 50°59' E 001°43'510.3
2017-Nov-15 12:30N 50°58' E 001°51'0 0.0
2017-Nov-15 12:00N 50°58' E 001°51'0 0.6
2017-Nov-15 11:30N 50°58' E 001°51'917.8
2017-Nov-15 11:00N 51°00' E 001°37'919.0
2017-Nov-15 10:30N 51°06' E 001°25'3 6.0
2017-Nov-15 09:58N 51°07' E 001°20'0 0.0
2017-Nov-15 09:31N 51°07' E 001°20'2 4.5
2017-Nov-15 09:01N 51°07' E 001°24'816.6
2017-Nov-15 08:30N 51°05' E 001°36'917.4
2017-Nov-15 08:01N 50°58' E 001°45'4 7.1
2017-Nov-15 07:30N 50°58' E 001°51'0 0.0
2017-Nov-15 07:00N 50°58' E 001°51'1 2.9
2017-Nov-15 06:30N 50°58' E 001°49'917.6
2017-Nov-15 06:00N 50°60' E 001°35'918.5
2017-Nov-15 05:30N 51°06' E 001°24'3 5.5
2017-Nov-15 05:00N 51°07' E 001°20'0 0.0
2017-Nov-15 04:30N 51°07' E 001°20'0 0.3
2017-Nov-15 04:00N 51°07' E 001°20'714.3
2017-Nov-15 03:30N 51°05' E 001°31'816.2
2017-Nov-15 03:00N 51°00' E 001°42'612.6
2017-Nov-15 02:31N 50°58' E 001°51'0 0.2
2017-Nov-15 02:01N 50°58' E 001°51'0 0.0
2017-Nov-15 01:31N 50°58' E 001°51'3 5.8
2017-Nov-15 01:00N 50°58' E 001°46'918.5
2017-Nov-15 00:30N 51°02' E 001°34'1018.9
2017-Nov-15 00:00N 51°07' E 001°20'0 0.6
2017-Nov-14 23:30N 51°07' E 001°20'4 8.8
2017-Nov-14 23:00N 51°06' E 001°27'918.0
2017-Nov-14 22:30N 51°02' E 001°39'815.2
2017-Nov-14 22:01N 50°58' E 001°50'1 1.4
2017-Nov-14 21:30N 50°58' E 001°51'1 2.1
2017-Nov-14 21:00N 50°58' E 001°49'918.7
2017-Nov-14 20:30N 51°01' E 001°35'918.8
2017-Nov-14 20:00N 51°06' E 001°23'2 4.2
2017-Nov-14 19:30N 51°07' E 001°20'0 0.0
2017-Nov-14 19:00N 51°07' E 001°20'3 5.6
2017-Nov-14 18:30N 51°07' E 001°24'918.6
2017-Nov-14 18:00N 51°02' E 001°37'917.1
2017-Nov-14 17:31N 50°58' E 001°49'1 2.1
2017-Nov-14 17:01N 50°58' E 001°51'0 0.0
2017-Nov-14 16:30N 50°58' E 001°51'612.6
2017-Nov-14 16:00N 50°58' E 001°41'917.9
2017-Nov-14 15:31N 51°03' E 001°29'714.3
2017-Nov-14 15:00N 51°07' E 001°20'0 0.0
2017-Nov-14 14:30N 51°07' E 001°20'0 0.0
2017-Nov-14 14:00N 51°07' E 001°20'612.8
2017-Nov-14 13:31N 51°05' E 001°30'918.3
2017-Nov-14 13:01N 50°60' E 001°41'612.8
2017-Nov-14 12:31N 50°58' E 001°51'0 0.0
2017-Nov-14 12:01N 50°58' E 001°51'1 1.5
2017-Nov-14 11:30N 50°58' E 001°50'1019.5
2017-Nov-14 11:01N 50°57' E 001°35'917.7
2017-Nov-14 10:30N 51°05' E 001°27'5 9.9
2017-Nov-14 10:00N 51°07' E 001°20'  

Dump ship's entire track history